createdAt,value
2023-04-08T00:02:15.832Z,86.24
2023-04-08T00:04:46.556Z,86.52
2023-04-08T00:07:18.098Z,86.02
2023-04-08T00:09:48.425Z,86.11
2023-04-08T00:12:18.338Z,85.46
2023-04-08T00:14:48.550Z,85.83
2023-04-08T00:17:19.095Z,86.19
2023-04-08T00:19:49.966Z,85.41
2023-04-08T00:22:20.609Z,85.99
2023-04-08T00:24:51.263Z,85.54
2023-04-08T00:27:21.849Z,85.93
2023-04-08T00:29:53.219Z,85.22
2023-04-08T00:32:23.330Z,85.24
2023-04-08T00:34:55.438Z,84.98
2023-04-08T00:37:28.245Z,85.03
2023-04-08T00:39:59.434Z,85.58
2023-04-08T00:42:31.908Z,85.33
2023-04-08T00:45:02.333Z,84.69
2023-04-08T00:47:33.327Z,84.61
2023-04-08T00:50:06.285Z,84.46
2023-04-08T00:52:36.579Z,85.24
2023-04-08T00:55:06.917Z,85.18
2023-04-08T00:57:38.807Z,84.71
2023-04-08T01:00:10.858Z,85.23
2023-04-08T01:02:53.752Z,85.11
2023-04-08T01:05:50.168Z,85.79
2023-04-08T01:08:22.038Z,85.35
2023-04-08T01:11:00.103Z,86.11
2023-04-08T01:13:35.466Z,86.12
2023-04-08T01:16:06.897Z,86.73
2023-04-08T01:18:39.374Z,87.09
2023-04-08T01:21:10.382Z,87.87
2023-04-08T01:23:51.993Z,87.36
2023-04-08T01:26:27.963Z,87.14
2023-04-08T01:29:03.118Z,87.44
2023-04-08T01:31:34.485Z,87.94
2023-04-08T01:34:06.861Z,88.09
2023-04-08T01:36:40.144Z,88.34
2023-04-08T01:39:11.371Z,88.96
2023-04-08T01:41:42.384Z,89.54
2023-04-08T01:44:13.826Z,90.10
2023-04-08T01:46:45.897Z,90.24
2023-04-08T01:49:18.156Z,90.60
2023-04-08T01:51:50.705Z,90.42
2023-04-08T01:54:21.892Z,90.52
2023-04-08T01:56:55.454Z,90.53
2023-04-08T01:59:31.333Z,91.08
2023-04-08T02:02:03.876Z,91.66
2023-04-08T02:04:37.926Z,91.47
2023-04-08T02:07:09.549Z,91.18
2023-04-08T02:09:41.128Z,90.88
2023-04-08T02:12:11.397Z,89.76
2023-04-08T02:14:41.699Z,88.97
2023-04-08T02:17:30.264Z,88.86
2023-04-08T02:20:11.850Z,88.65
2023-04-08T02:23:05.797Z,89.33
2023-04-08T02:25:39.210Z,89.76
2023-04-08T02:28:13.322Z,89.63
2023-04-08T02:30:52.345Z,89.03
2023-04-08T02:33:24.395Z,88.52
2023-04-08T02:35:57.393Z,89.16
2023-04-08T02:38:30.993Z,88.49
2023-04-08T02:41:03.970Z,87.84
2023-04-08T02:43:34.607Z,88.32
2023-04-08T02:46:08.477Z,88.83
2023-04-08T02:48:39.531Z,89.43
2023-04-08T02:51:10.079Z,89.91
2023-04-08T02:53:40.245Z,89.66
2023-04-08T02:56:13.166Z,89.93
2023-04-08T02:58:44.057Z,88.71
2023-04-08T03:01:15.500Z,88.34
2023-04-08T03:03:46.902Z,88.46
2023-04-08T03:06:17.240Z,87.77
2023-04-08T03:08:48.849Z,88.44
2023-04-08T03:11:19.601Z,89.08
2023-04-08T03:13:49.437Z,89.02
2023-04-08T03:16:19.672Z,88.24
2023-04-08T03:18:52.843Z,88.77
2023-04-08T03:21:23.770Z,89.32
2023-04-08T03:23:54.087Z,89.76
2023-04-08T03:26:24.361Z,88.58
2023-04-08T03:28:55.517Z,89.27
2023-04-08T03:31:28.181Z,89.11
2023-04-08T03:33:58.423Z,89.47
2023-04-08T03:36:28.171Z,88.83
2023-04-08T03:38:59.515Z,89.40
2023-04-08T03:41:30.036Z,89.43
2023-04-08T03:44:00.267Z,89.62
2023-04-08T03:46:30.253Z,90.01
2023-04-08T03:49:00.836Z,89.10
2023-04-08T03:51:30.589Z,88.04
2023-04-08T03:54:00.746Z,88.46
2023-04-08T03:56:31.216Z,88.20
2023-04-08T03:59:01.781Z,88.06
2023-04-08T04:01:33.473Z,88.59
2023-04-08T04:04:03.984Z,88.10
2023-04-08T04:06:34.317Z,87.55
2023-04-08T04:09:05.151Z,87.11
2023-04-08T04:11:37.343Z,88.58
2023-04-08T04:14:07.976Z,89.82
2023-04-08T04:16:38.670Z,89.70
2023-04-08T04:19:10.121Z,89.47
2023-04-08T04:21:43.065Z,89.58
2023-04-08T04:24:14.556Z,90.11
2023-04-08T04:26:46.268Z,90.31
2023-04-08T04:29:16.868Z,90.79
2023-04-08T04:31:47.509Z,90.60
2023-04-08T04:34:17.352Z,91.23
2023-04-08T04:36:48.982Z,91.51
2023-04-08T04:39:19.822Z,92.43
2023-04-08T04:41:50.417Z,92.75
2023-04-08T04:44:21.631Z,92.93
2023-04-08T04:46:52.799Z,92.87
2023-04-08T04:49:24.251Z,92.66
2023-04-08T04:51:54.751Z,92.42
2023-04-08T04:54:24.500Z,92.20
2023-04-08T04:56:54.855Z,92.76
2023-04-08T04:59:24.638Z,92.77
2023-04-08T05:01:55.037Z,93.29
2023-04-08T05:04:27.205Z,92.88
2023-04-08T05:07:01.660Z,93.44
2023-04-08T05:09:32.383Z,93.87
2023-04-08T05:12:02.149Z,93.36
2023-04-08T05:14:33.443Z,93.39
2023-04-08T05:17:03.613Z,93.35
2023-04-08T05:19:34.021Z,93.18
2023-04-08T05:22:05.028Z,93.34
2023-04-08T05:24:36.340Z,93.32
2023-04-08T05:27:07.030Z,93.17
2023-04-08T05:29:36.919Z,93.47
2023-04-08T05:32:07.292Z,93.43
2023-04-08T05:34:37.833Z,93.56
2023-04-08T05:37:07.588Z,93.06
2023-04-08T05:39:37.841Z,92.60
2023-04-08T05:42:07.589Z,92.79
2023-04-08T05:44:38.230Z,91.36
2023-04-08T05:47:08.850Z,91.24
2023-04-08T05:49:39.014Z,91.72
2023-04-08T05:52:08.766Z,91.75
2023-04-08T05:54:39.722Z,90.70
2023-04-08T05:57:10.498Z,90.28
2023-04-08T05:59:40.955Z,90.54
2023-04-08T06:02:10.927Z,90.74
2023-04-08T06:04:41.239Z,91.34
2023-04-08T06:07:11.378Z,91.08
2023-04-08T06:09:43.780Z,91.03
2023-04-08T06:12:15.417Z,90.84
2023-04-08T06:14:45.332Z,90.38
2023-04-08T06:17:15.680Z,90.85
2023-04-08T06:19:46.205Z,89.80
2023-04-08T06:22:17.244Z,89.27
2023-04-08T06:24:50.341Z,88.96
2023-04-08T06:27:20.537Z,89.08
2023-04-08T06:29:50.730Z,90.44
2023-04-08T06:32:21.997Z,90.37
2023-04-08T06:34:52.002Z,90.77
2023-04-08T06:37:21.997Z,90.75
2023-04-08T06:39:53.016Z,90.75
2023-04-08T06:42:24.040Z,91.43
2023-04-08T06:45:09.376Z,91.35
2023-04-08T06:47:39.273Z,92.37
2023-04-08T06:50:10.036Z,92.66
2023-04-08T06:52:40.316Z,92.51
2023-04-08T06:55:10.732Z,92.83
2023-04-08T06:57:41.319Z,92.85
2023-04-08T07:00:11.725Z,92.94
2023-04-08T07:02:42.185Z,93.24
2023-04-08T07:05:12.343Z,94.02
2023-04-08T07:07:43.399Z,93.93
2023-04-08T07:10:14.853Z,94.29
2023-04-08T07:12:45.449Z,94.16
2023-04-08T07:15:15.704Z,94.42
2023-04-08T07:17:48.384Z,94.11
2023-04-08T07:20:19.816Z,94.24
2023-04-08T07:22:49.980Z,94.24
2023-04-08T07:25:20.229Z,94.34
2023-04-08T07:27:51.500Z,94.41
2023-04-08T07:30:21.781Z,94.29
2023-04-08T07:32:51.978Z,94.63
2023-04-08T07:35:27.384Z,94.61
2023-04-08T07:37:59.706Z,94.84
2023-04-08T07:40:30.983Z,95.04
2023-04-08T07:43:01.389Z,95.11
2023-04-08T07:45:31.852Z,95.25
2023-04-08T07:48:02.637Z,95.33
2023-04-08T07:50:32.565Z,95.66
2023-04-08T07:53:02.716Z,95.74
2023-04-08T07:55:36.759Z,95.80
2023-04-08T07:58:07.767Z,95.46
2023-04-08T08:00:37.705Z,95.30
2023-04-08T08:03:07.771Z,95.04
2023-04-08T08:05:38.984Z,94.79
2023-04-08T08:08:09.780Z,94.67
2023-04-08T08:10:42.585Z,94.56
2023-04-08T08:13:16.215Z,94.14
2023-04-08T08:15:47.263Z,94.08
2023-04-08T08:18:18.505Z,94.05
2023-04-08T08:20:48.257Z,93.82
2023-04-08T08:23:18.382Z,93.88
2023-04-08T08:25:48.556Z,93.94
2023-04-08T08:28:19.678Z,93.85
2023-04-08T08:30:50.624Z,94.23
2023-04-08T08:33:20.565Z,94.34
2023-04-08T08:35:50.756Z,94.52
2023-04-08T08:38:21.092Z,94.35
2023-04-08T08:40:59.276Z,94.20
2023-04-08T08:43:34.551Z,94.29
2023-04-08T08:46:04.786Z,94.41
2023-04-08T08:48:35.176Z,94.34
2023-04-08T08:51:13.814Z,94.28
2023-04-08T08:53:46.323Z,93.96
2023-04-08T08:56:18.716Z,94.15
2023-04-08T08:58:50.219Z,94.29
2023-04-08T09:01:54.355Z,94.21
2023-04-08T09:04:24.960Z,94.38
2023-04-08T09:07:12.733Z,94.43
2023-04-08T09:09:53.347Z,94.22
2023-04-08T09:12:24.573Z,94.30
2023-04-08T09:15:11.823Z,94.56
2023-04-08T09:17:44.401Z,94.39
2023-04-08T09:20:16.253Z,94.47
2023-04-08T09:23:00.574Z,94.54
2023-04-08T09:25:33.778Z,94.12
2023-04-08T09:28:04.652Z,94.26
2023-04-08T09:30:34.533Z,94.12
2023-04-08T09:33:08.797Z,93.94
2023-04-08T09:35:39.999Z,94.01
2023-04-08T09:38:12.801Z,93.91
2023-04-08T09:40:45.361Z,93.90
2023-04-08T09:43:21.562Z,94.23
2023-04-08T09:45:53.866Z,94.09
2023-04-08T09:48:32.771Z,94.35
2023-04-08T09:51:04.009Z,94.44
2023-04-08T09:53:42.981Z,94.38
2023-04-08T09:56:15.935Z,94.13
2023-04-08T09:59:06.826Z,94.26
2023-04-08T10:01:46.350Z,93.84
2023-04-08T10:04:22.343Z,93.02
2023-04-08T10:06:55.800Z,92.87
2023-04-08T10:09:26.174Z,93.05
2023-04-08T10:11:56.659Z,93.35
2023-04-08T10:14:30.272Z,93.31
2023-04-08T10:17:37.876Z,93.32
2023-04-08T10:20:40.495Z,93.89
2023-04-08T10:23:16.043Z,94.10
2023-04-08T10:25:51.088Z,94.15
2023-04-08T10:28:25.522Z,93.87
2023-04-08T10:31:01.382Z,93.39
2023-04-08T10:33:31.318Z,93.16
2023-04-08T10:36:13.970Z,92.95
2023-04-08T10:38:45.484Z,92.93
2023-04-08T10:41:25.281Z,92.92
2023-04-08T10:43:55.710Z,92.67
2023-04-08T10:46:29.915Z,92.75
2023-04-08T10:49:03.961Z,92.24
2023-04-08T10:51:36.250Z,92.07
2023-04-08T10:54:15.154Z,92.03
2023-04-08T10:56:49.012Z,91.92
2023-04-08T10:59:29.354Z,91.34
2023-04-08T11:01:59.867Z,90.70
2023-04-08T11:04:30.455Z,89.70
2023-04-08T11:07:00.864Z,88.66
2023-04-08T11:09:31.342Z,88.01
2023-04-08T11:12:02.041Z,87.73
2023-04-08T11:14:34.383Z,86.82
2023-04-08T11:17:07.110Z,86.27
2023-04-08T11:19:38.588Z,86.21
2023-04-08T11:22:11.921Z,87.72
2023-04-08T11:24:42.561Z,87.25
2023-04-08T11:27:12.419Z,88.21
2023-04-08T11:29:43.608Z,88.25
2023-04-08T11:32:14.253Z,87.80
2023-04-08T11:34:44.063Z,87.55
2023-04-08T11:37:14.778Z,87.58
2023-04-08T11:39:48.510Z,88.07
2023-04-08T11:42:33.981Z,88.68
2023-04-08T11:45:11.774Z,88.91
2023-04-08T11:47:42.735Z,89.61
2023-04-08T11:50:12.886Z,88.80
2023-04-08T11:52:49.759Z,88.35
2023-04-08T11:55:46.884Z,88.83
2023-04-08T11:58:18.887Z,88.04
2023-04-08T12:00:50.766Z,87.94
2023-04-08T12:03:21.803Z,87.48
2023-04-08T12:05:53.248Z,88.11
2023-04-08T12:08:23.826Z,87.29
2023-04-08T12:10:54.065Z,87.02
2023-04-08T12:13:25.828Z,86.88
2023-04-08T12:15:56.790Z,86.56
2023-04-08T12:18:26.658Z,85.93
2023-04-08T12:20:56.837Z,86.18
2023-04-08T12:23:27.210Z,85.11
2023-04-08T12:25:57.805Z,85.02
2023-04-08T12:28:27.520Z,84.15
2023-04-08T12:30:58.380Z,85.15
2023-04-08T12:33:28.116Z,86.12
2023-04-08T12:36:02.573Z,86.52
2023-04-08T12:38:34.563Z,86.54
2023-04-08T12:41:05.067Z,86.11
2023-04-08T12:43:36.036Z,85.08
2023-04-08T12:46:07.541Z,85.40
2023-04-08T12:48:40.641Z,84.49
2023-04-08T12:51:11.582Z,85.55
2023-04-08T12:53:41.310Z,85.82
2023-04-08T12:56:12.242Z,86.28
2023-04-08T12:58:43.103Z,88.14
2023-04-08T13:01:13.988Z,89.64
2023-04-08T13:03:46.395Z,89.45
2023-04-08T13:06:17.965Z,88.47
2023-04-08T13:08:49.126Z,90.76
2023-04-08T13:11:19.637Z,90.87
2023-04-08T13:13:49.782Z,89.29
2023-04-08T13:16:19.940Z,89.21
2023-04-08T13:18:51.653Z,89.83
2023-04-08T13:21:22.883Z,90.58
2023-04-08T13:23:52.985Z,91.95
2023-04-08T13:26:23.276Z,92.56
2023-04-08T13:28:57.653Z,92.26
2023-04-08T13:31:29.856Z,91.76
2023-04-08T13:34:00.643Z,92.32
2023-04-08T13:36:30.709Z,92.66
2023-04-08T13:39:01.876Z,94.07
2023-04-08T13:41:32.556Z,92.51
2023-04-08T13:44:02.645Z,92.93
2023-04-08T13:46:32.923Z,92.99
2023-04-08T13:49:04.361Z,93.46
2023-04-08T13:51:35.016Z,93.95
2023-04-08T13:54:05.719Z,93.70
2023-04-08T13:56:36.064Z,93.28
2023-04-08T13:59:06.721Z,92.64
2023-04-08T14:01:37.459Z,93.42
2023-04-08T14:04:08.227Z,93.32
2023-04-08T14:06:38.474Z,93.28
2023-04-08T14:09:09.180Z,93.88
2023-04-08T14:11:40.043Z,93.13
2023-04-08T14:14:10.046Z,92.84
2023-04-08T14:16:41.321Z,93.35
2023-04-08T14:19:11.606Z,92.47
2023-04-08T14:21:41.566Z,92.57
2023-04-08T14:24:11.803Z,91.80
2023-04-08T14:26:42.171Z,92.67
2023-04-08T14:29:13.622Z,90.95
2023-04-08T14:31:43.664Z,91.33
2023-04-08T14:34:13.458Z,91.02
2023-04-08T14:36:44.483Z,90.10
2023-04-08T14:39:15.217Z,89.10
2023-04-08T14:41:49.110Z,88.55
2023-04-08T14:44:19.028Z,86.58
2023-04-08T14:46:49.241Z,86.42
2023-04-08T14:49:20.924Z,85.68
2023-04-08T14:51:53.218Z,85.60
2023-04-08T14:54:25.022Z,86.13
2023-04-08T14:56:55.737Z,85.95
2023-04-08T14:59:25.565Z,86.30
2023-04-08T15:01:56.305Z,86.71
2023-04-08T15:04:27.514Z,86.78
2023-04-08T15:06:58.243Z,85.42
2023-04-08T15:09:28.039Z,84.67
2023-04-08T15:11:59.434Z,82.83
2023-04-08T15:14:30.231Z,85.10
2023-04-08T15:17:02.782Z,84.17
2023-04-08T15:19:32.703Z,81.22
2023-04-08T15:22:02.451Z,82.36
2023-04-08T15:24:33.047Z,84.21
2023-04-08T15:27:09.687Z,85.96
2023-04-08T15:30:02.387Z,84.42
2023-04-08T15:32:44.180Z,85.92
2023-04-08T15:35:29.324Z,85.16
2023-04-08T15:38:13.494Z,87.41
2023-04-08T15:41:06.851Z,86.74
2023-04-08T15:43:50.159Z,86.21
2023-04-08T15:46:39.713Z,85.58
2023-04-08T15:49:23.822Z,86.82
2023-04-08T15:52:14.590Z,86.38
2023-04-08T15:54:51.575Z,87.10
2023-04-08T15:57:43.854Z,88.01
2023-04-08T16:00:22.125Z,87.03
2023-04-08T16:03:56.610Z,85.90
2023-04-08T16:06:27.367Z,86.03
2023-04-08T16:08:58.380Z,85.56
2023-04-08T16:11:30.358Z,85.98
2023-04-08T16:14:00.907Z,85.78
2023-04-08T16:16:31.737Z,84.53
2023-04-08T16:19:03.399Z,85.80
2023-04-08T16:21:34.691Z,85.82
2023-04-08T16:24:06.960Z,84.31
2023-04-08T16:26:37.788Z,84.58
2023-04-08T16:29:09.535Z,84.52
2023-04-08T16:31:47.508Z,84.61
2023-04-08T16:34:18.171Z,84.92
2023-04-08T16:36:48.920Z,84.58
2023-04-08T16:39:19.056Z,85.39
2023-04-08T16:41:49.571Z,84.80
2023-04-08T16:44:21.218Z,85.52
2023-04-08T16:46:51.855Z,84.75
2023-04-08T16:49:21.839Z,83.86
2023-04-08T16:51:52.029Z,85.36
2023-04-08T16:54:22.396Z,85.02
2023-04-08T16:56:53.183Z,84.53
2023-04-08T16:59:25.573Z,84.56
2023-04-08T17:01:55.990Z,85.33
2023-04-08T17:04:26.530Z,84.59
2023-04-08T17:06:58.687Z,85.56
2023-04-08T17:09:29.258Z,84.76
2023-04-08T17:11:59.220Z,83.67
2023-04-08T17:14:31.254Z,84.41
2023-04-08T17:17:02.483Z,84.70
2023-04-08T17:19:43.184Z,82.76
2023-04-08T17:22:13.728Z,83.48
2023-04-08T17:24:47.829Z,83.49
2023-04-08T17:27:19.167Z,81.98
2023-04-08T17:29:49.262Z,83.39
2023-04-08T17:32:19.074Z,81.92
2023-04-08T17:34:49.237Z,81.33
2023-04-08T17:37:19.787Z,81.35
2023-04-08T17:39:52.831Z,81.48
2023-04-08T17:42:24.822Z,81.89
2023-04-08T17:45:04.876Z,81.60
2023-04-08T17:47:34.987Z,82.06
2023-04-08T17:50:06.092Z,81.06
2023-04-08T17:52:36.418Z,81.05
2023-04-08T17:55:06.742Z,82.56
2023-04-08T17:57:38.177Z,82.57
2023-04-08T18:00:10.029Z,82.29
2023-04-08T18:02:42.866Z,80.49
2023-04-08T18:05:13.873Z,81.13
2023-04-08T18:07:43.835Z,82.75
2023-04-08T18:10:14.049Z,82.24
2023-04-08T18:12:44.323Z,82.03
2023-04-08T18:15:14.741Z,81.96
2023-04-08T18:17:44.751Z,80.28
2023-04-08T18:20:14.728Z,78.12
2023-04-08T18:22:45.211Z,75.82
2023-04-08T18:25:14.940Z,74.04
2023-04-08T18:27:45.664Z,69.77
2023-04-08T18:30:15.983Z,71.96
2023-04-08T18:32:47.826Z,73.20
2023-04-08T18:35:18.156Z,69.06
2023-04-08T18:37:47.906Z,65.93
2023-04-08T18:40:18.931Z,66.74
2023-04-08T18:42:49.713Z,60.50
2023-04-08T18:45:20.129Z,55.83
2023-04-08T18:47:50.321Z,54.12
2023-04-08T18:50:20.605Z,54.47
2023-04-08T18:52:52.855Z,53.52
2023-04-08T18:55:24.136Z,57.74
2023-04-08T18:57:54.705Z,59.21
2023-04-08T19:00:24.609Z,58.93
2023-04-08T19:02:55.714Z,55.54
2023-04-08T19:05:27.238Z,64.42
2023-04-08T19:07:57.365Z,70.62
2023-04-08T19:10:27.182Z,71.09
2023-04-08T19:12:58.233Z,72.90
2023-04-08T19:15:30.447Z,75.30
2023-04-08T19:18:02.561Z,77.60
2023-04-08T19:20:34.327Z,79.04
2023-04-08T19:23:04.676Z,78.69
2023-04-08T19:25:36.026Z,79.28
2023-04-08T19:28:09.585Z,79.92
2023-04-08T19:30:40.765Z,79.80
2023-04-08T19:33:11.403Z,79.87
2023-04-08T19:35:41.617Z,79.44
2023-04-08T19:38:13.192Z,80.46
2023-04-08T19:40:43.331Z,80.72
2023-04-08T19:43:13.441Z,81.53
2023-04-08T19:45:43.801Z,82.48
2023-04-08T19:48:14.235Z,82.71
2023-04-08T19:50:44.791Z,82.23
2023-04-08T19:53:15.042Z,82.86
2023-04-08T19:55:45.746Z,81.57
2023-04-08T19:58:15.947Z,82.10
2023-04-08T20:00:46.568Z,81.85
2023-04-08T20:03:16.764Z,82.09
2023-04-08T20:05:49.883Z,82.01
2023-04-08T20:08:20.718Z,82.53
2023-04-08T20:10:51.142Z,84.08
2023-04-08T20:13:21.887Z,84.63
2023-04-08T20:15:53.958Z,85.46
2023-04-08T20:18:25.278Z,86.20
2023-04-08T20:20:56.418Z,86.80
2023-04-08T20:23:27.766Z,87.29
2023-04-08T20:25:59.532Z,86.95
2023-04-08T20:28:31.513Z,87.53
2023-04-08T20:31:04.532Z,87.61
2023-04-08T20:33:35.856Z,87.79
2023-04-08T20:36:06.320Z,88.33
2023-04-08T20:38:37.990Z,88.31
2023-04-08T20:41:08.674Z,89.19
2023-04-08T20:43:38.459Z,89.09
2023-04-08T20:46:08.739Z,89.91
2023-04-08T20:48:39.385Z,90.11
2023-04-08T20:51:09.746Z,90.27
2023-04-08T20:53:44.423Z,90.54
2023-04-08T20:56:16.123Z,90.80
2023-04-08T20:58:45.909Z,90.88
2023-04-08T21:01:16.990Z,91.01
2023-04-08T21:03:48.189Z,91.36
2023-04-08T21:06:22.012Z,91.54
2023-04-08T21:08:54.134Z,91.71
2023-04-08T21:11:25.195Z,91.86
2023-04-08T21:13:55.948Z,92.07
2023-04-08T21:16:26.110Z,92.21
2023-04-08T21:18:55.948Z,92.11
2023-04-08T21:21:26.183Z,92.35
2023-04-08T21:23:56.746Z,92.40
2023-04-08T21:26:28.891Z,92.44
2023-04-08T21:28:58.943Z,92.60
2023-04-08T21:31:29.811Z,92.49
2023-04-08T21:34:00.148Z,92.41
2023-04-08T21:36:31.945Z,92.46
2023-04-08T21:39:03.484Z,92.61
2023-04-08T21:41:33.996Z,92.55
2023-04-08T21:44:06.655Z,92.56
2023-04-08T21:46:37.374Z,92.49
2023-04-08T21:49:08.061Z,92.47
2023-04-08T21:51:40.136Z,92.30
2023-04-08T21:54:10.220Z,92.42
2023-04-08T21:56:40.956Z,92.28
2023-04-08T21:59:13.104Z,92.34
2023-04-08T22:01:43.338Z,92.52
2023-04-08T22:04:13.559Z,92.30
2023-04-08T22:06:44.551Z,92.13
2023-04-08T22:09:14.581Z,92.06
2023-04-08T22:11:45.276Z,91.98
2023-04-08T22:14:16.610Z,91.83
2023-04-08T22:16:48.174Z,91.79
2023-04-08T22:19:18.976Z,91.76
2023-04-08T22:21:49.159Z,92.07
2023-04-08T22:24:20.196Z,92.12
2023-04-08T22:26:51.813Z,92.28
2023-04-08T22:29:22.515Z,92.23
2023-04-08T22:31:53.762Z,91.94
2023-04-08T22:34:25.723Z,91.99
2023-04-08T22:36:56.513Z,92.17
2023-04-08T22:39:28.775Z,92.24
2023-04-08T22:41:59.217Z,92.35
2023-04-08T22:44:29.039Z,92.49
2023-04-08T22:47:01.994Z,92.71
2023-04-08T22:49:40.447Z,92.95
2023-04-08T22:52:11.927Z,92.99
2023-04-08T22:54:42.323Z,93.02
2023-04-08T22:57:12.150Z,93.30
2023-04-08T22:59:43.839Z,93.06
2023-04-08T23:02:15.339Z,93.12
2023-04-08T23:04:51.028Z,93.37
2023-04-08T23:07:23.943Z,93.48
2023-04-08T23:09:54.741Z,93.58
2023-04-08T23:12:26.007Z,93.61
2023-04-08T23:15:19.670Z,93.93
2023-04-08T23:17:53.918Z,94.28
2023-04-08T23:20:24.927Z,94.36
2023-04-08T23:22:55.928Z,94.58
2023-04-08T23:25:26.527Z,94.54
2023-04-08T23:27:57.087Z,94.88
2023-04-08T23:30:27.604Z,94.88
2023-04-08T23:33:23.999Z,94.88
2023-04-08T23:35:58.600Z,94.92
2023-04-08T23:38:28.750Z,95.09
2023-04-08T23:40:59.586Z,95.11
2023-04-08T23:43:30.627Z,95.32
2023-04-08T23:46:00.508Z,95.66
2023-04-08T23:48:30.444Z,95.70
2023-04-08T23:51:02.370Z,95.76
2023-04-08T23:53:35.937Z,95.72
2023-04-08T23:56:10.428Z,95.58
2023-04-08T23:58:41.219Z,95.49
